createdAt,value
2022-09-16T00:00:35.781Z,59.87
2022-09-16T00:03:04.238Z,59.96
2022-09-16T00:05:31.820Z,60.08
2022-09-16T00:07:59.456Z,60.39
2022-09-16T00:10:28.689Z,60.57
2022-09-16T00:12:56.315Z,61.06
2022-09-16T00:15:23.984Z,61.26
2022-09-16T00:17:51.685Z,61.40
2022-09-16T00:20:19.417Z,61.07
2022-09-16T00:22:46.983Z,61.57
2022-09-16T00:25:14.597Z,61.66
2022-09-16T00:27:43.531Z,61.60
2022-09-16T00:30:11.998Z,61.61
2022-09-16T00:32:39.597Z,61.92
2022-09-16T00:35:08.322Z,61.80
2022-09-16T00:37:36.024Z,61.30
2022-09-16T00:40:04.044Z,61.41
2022-09-16T00:42:31.683Z,61.59
2022-09-16T00:45:03.341Z,61.29
2022-09-16T00:47:35.567Z,61.43
2022-09-16T00:50:09.229Z,61.69
2022-09-16T00:52:37.378Z,61.39
2022-09-16T00:55:09.452Z,62.43
2022-09-16T00:57:39.242Z,62.41
2022-09-16T01:00:10.787Z,61.80
2022-09-16T01:02:38.832Z,61.89
2022-09-16T01:05:09.151Z,61.82
2022-09-16T01:07:43.097Z,61.66
2022-09-16T01:10:11.358Z,61.28
2022-09-16T01:12:40.050Z,60.93
2022-09-16T01:15:09.010Z,60.79
2022-09-16T01:17:55.312Z,61.03
2022-09-16T01:21:00.885Z,61.77
2022-09-16T01:23:58.129Z,62.00
2022-09-16T01:26:48.981Z,61.96
2022-09-16T01:29:33.937Z,62.53
2022-09-16T01:32:07.689Z,61.95
2022-09-16T01:34:47.269Z,61.69
2022-09-16T01:37:25.662Z,61.44
2022-09-16T01:40:03.552Z,60.29
2022-09-16T01:42:39.568Z,61.28
2022-09-16T01:45:16.438Z,61.35
2022-09-16T01:47:55.625Z,62.08
2022-09-16T01:50:27.621Z,63.00
2022-09-16T01:53:02.147Z,64.05
2022-09-16T01:55:33.821Z,63.86
2022-09-16T01:58:06.102Z,63.19
2022-09-16T02:00:34.576Z,63.62
2022-09-16T02:03:08.677Z,63.82
2022-09-16T02:05:41.848Z,63.81
2022-09-16T02:08:13.422Z,63.35
2022-09-16T02:10:44.519Z,62.60
2022-09-16T02:13:18.969Z,62.77
2022-09-16T02:15:50.996Z,62.56
2022-09-16T02:18:25.083Z,62.75
2022-09-16T02:20:55.350Z,62.64
2022-09-16T02:23:26.560Z,62.44
2022-09-16T02:25:56.486Z,61.89
2022-09-16T02:28:27.908Z,62.21
2022-09-16T02:30:59.395Z,62.63
2022-09-16T02:33:32.798Z,62.94
2022-09-16T02:36:03.181Z,63.08
2022-09-16T02:38:35.670Z,64.25
2022-09-16T02:41:03.632Z,63.68
2022-09-16T02:43:31.980Z,63.89
2022-09-16T02:46:10.247Z,63.13
2022-09-16T02:48:50.474Z,63.02
2022-09-16T02:51:30.606Z,63.18
2022-09-16T02:54:02.997Z,62.81
2022-09-16T02:56:33.911Z,63.56
2022-09-16T02:59:02.165Z,64.13
2022-09-16T03:01:33.811Z,63.44
2022-09-16T03:04:04.114Z,63.46
2022-09-16T03:06:36.000Z,63.60
2022-09-16T03:09:07.305Z,63.74
2022-09-16T03:11:50.250Z,63.71
2022-09-16T03:14:53.000Z,63.88
2022-09-16T03:17:34.567Z,64.09
2022-09-16T03:20:10.966Z,64.80
2022-09-16T03:22:48.562Z,64.46
2022-09-16T03:25:30.999Z,64.16
2022-09-16T03:28:06.825Z,64.08
2022-09-16T03:30:42.530Z,64.29
2022-09-16T03:33:16.766Z,64.88
2022-09-16T03:35:50.294Z,65.22
2022-09-16T03:38:19.570Z,64.54
2022-09-16T03:40:49.224Z,64.54
2022-09-16T03:43:18.075Z,65.54
2022-09-16T03:45:45.938Z,65.60
2022-09-16T03:48:14.592Z,65.75
2022-09-16T03:50:42.203Z,65.17
2022-09-16T03:53:11.297Z,65.13
2022-09-16T03:55:38.939Z,65.09
2022-09-16T03:58:06.570Z,65.15
2022-09-16T04:00:34.593Z,65.20
2022-09-16T04:03:03.055Z,64.86
2022-09-16T04:05:30.966Z,64.64
2022-09-16T04:07:58.809Z,65.32
2022-09-16T04:10:27.817Z,64.90
2022-09-16T04:12:58.594Z,64.58
2022-09-16T04:15:26.223Z,64.71
2022-09-16T04:17:55.097Z,64.97
2022-09-16T04:20:22.722Z,64.91
2022-09-16T04:22:50.271Z,64.86
2022-09-16T04:25:17.871Z,64.67
2022-09-16T04:27:46.876Z,64.43
2022-09-16T04:30:14.805Z,64.58
2022-09-16T04:32:42.365Z,64.16
2022-09-16T04:35:10.617Z,63.81
2022-09-16T04:37:38.215Z,63.42
2022-09-16T04:40:06.713Z,63.49
2022-09-16T04:42:34.393Z,63.46
2022-09-16T04:45:03.447Z,62.96
2022-09-16T04:47:31.141Z,63.08
2022-09-16T04:49:59.430Z,62.80
2022-09-16T04:52:27.075Z,62.81
2022-09-16T04:54:55.891Z,62.57
2022-09-16T04:57:25.854Z,62.63
2022-09-16T04:59:53.416Z,62.25
2022-09-16T05:02:22.360Z,62.51
2022-09-16T05:04:49.990Z,62.87
2022-09-16T05:07:17.647Z,62.25
2022-09-16T05:09:45.207Z,62.46
2022-09-16T05:12:12.835Z,62.42
2022-09-16T05:14:40.688Z,62.56
2022-09-16T05:17:08.364Z,62.11
2022-09-16T05:19:37.313Z,62.41
2022-09-16T05:22:07.035Z,62.24
2022-09-16T05:24:36.385Z,62.21
2022-09-16T05:27:04.471Z,61.96
2022-09-16T05:29:32.099Z,62.33
2022-09-16T05:31:59.691Z,61.76
2022-09-16T05:34:28.603Z,62.05
2022-09-16T05:36:57.632Z,61.45
2022-09-16T05:39:26.207Z,61.31
2022-09-16T05:41:56.178Z,61.30
2022-09-16T05:44:23.853Z,61.82
2022-09-16T05:46:51.630Z,61.59
2022-09-16T05:49:20.860Z,61.70
2022-09-16T05:51:49.749Z,61.32
2022-09-16T05:54:19.756Z,61.33
2022-09-16T05:56:48.330Z,61.27
2022-09-16T05:59:17.451Z,61.55
2022-09-16T06:01:45.930Z,61.54
2022-09-16T06:04:15.884Z,61.45
2022-09-16T06:06:44.875Z,61.81
2022-09-16T06:09:15.799Z,61.79
2022-09-16T06:11:46.807Z,61.32
2022-09-16T06:14:15.744Z,61.56
2022-09-16T06:16:43.887Z,61.38
2022-09-16T06:19:13.632Z,60.83
2022-09-16T06:21:41.811Z,61.24
2022-09-16T06:24:10.056Z,61.43
2022-09-16T06:26:39.770Z,60.57
2022-09-16T06:29:09.794Z,60.11
2022-09-16T06:31:38.656Z,60.38
2022-09-16T06:34:07.709Z,60.68
2022-09-16T06:36:38.518Z,59.52
2022-09-16T06:39:08.267Z,59.42
2022-09-16T06:41:35.961Z,59.69
2022-09-16T06:44:03.605Z,59.81
2022-09-16T06:46:32.521Z,59.64
2022-09-16T06:49:05.047Z,60.38
2022-09-16T06:51:34.351Z,59.56
2022-09-16T06:54:03.521Z,59.45
2022-09-16T06:56:31.300Z,59.52
2022-09-16T06:58:58.899Z,60.17
2022-09-16T07:01:28.585Z,60.46
2022-09-16T07:03:59.306Z,60.70
2022-09-16T07:06:52.249Z,60.20
2022-09-16T07:09:18.434Z,59.69
2022-09-16T07:11:46.093Z,59.60
2022-09-16T07:14:13.659Z,59.33
2022-09-16T07:16:41.327Z,58.54
2022-09-16T07:19:10.482Z,58.47
2022-09-16T07:21:38.129Z,58.19
2022-09-16T07:24:06.180Z,57.54
2022-09-16T07:26:35.711Z,57.43
2022-09-16T07:29:05.318Z,57.05
2022-09-16T07:31:36.350Z,56.27
2022-09-16T07:34:05.529Z,55.64
2022-09-16T07:36:36.365Z,55.72
2022-09-16T07:39:04.846Z,55.56
2022-09-16T07:41:35.631Z,55.40
2022-09-16T07:44:05.070Z,55.71
2022-09-16T07:46:34.726Z,55.62
2022-09-16T07:49:03.944Z,55.96
2022-09-16T07:51:31.908Z,54.70
2022-09-16T07:54:03.744Z,55.31
2022-09-16T07:56:34.352Z,55.05
2022-09-16T07:59:03.099Z,55.75
2022-09-16T08:01:31.702Z,55.82
2022-09-16T08:04:01.326Z,55.57
2022-09-16T08:06:30.152Z,55.95
2022-09-16T08:09:10.159Z,55.50
2022-09-16T08:11:50.377Z,55.63
2022-09-16T08:14:17.972Z,55.14
2022-09-16T08:16:46.591Z,55.78
2022-09-16T08:19:14.378Z,55.91
2022-09-16T08:21:42.008Z,56.01
2022-09-16T08:24:10.902Z,55.47
2022-09-16T08:26:38.587Z,55.03
2022-09-16T08:29:09.397Z,54.65
2022-09-16T08:31:38.654Z,54.07
2022-09-16T08:34:07.285Z,53.19
2022-09-16T08:36:35.151Z,52.37
2022-09-16T08:39:03.142Z,50.24
2022-09-16T08:41:51.398Z,49.49
2022-09-16T08:44:34.497Z,49.18
2022-09-16T08:47:06.279Z,50.62
2022-09-16T08:49:38.262Z,51.17
2022-09-16T08:52:14.262Z,51.27
2022-09-16T08:54:45.126Z,51.83
2022-09-16T08:57:16.481Z,52.28
2022-09-16T08:59:49.891Z,51.85
2022-09-16T09:02:29.822Z,51.18
2022-09-16T09:04:57.963Z,51.11
2022-09-16T09:07:43.101Z,51.69
2022-09-16T09:10:16.851Z,50.56
2022-09-16T09:12:49.742Z,49.75
2022-09-16T09:15:33.428Z,49.10
2022-09-16T09:18:16.139Z,49.00
2022-09-16T09:20:50.581Z,48.08
2022-09-16T09:23:34.209Z,47.01
2022-09-16T09:26:08.596Z,46.84
2022-09-16T09:29:01.287Z,44.75
2022-09-16T09:31:39.372Z,43.00
2022-09-16T09:34:17.244Z,41.93
2022-09-16T09:37:00.338Z,41.30
2022-09-16T09:39:43.125Z,41.96
2022-09-16T09:42:16.219Z,42.09
2022-09-16T09:44:52.129Z,40.79
2022-09-16T09:47:26.185Z,41.25
2022-09-16T09:49:57.686Z,41.57
2022-09-16T09:52:32.391Z,42.82
2022-09-16T09:55:16.291Z,43.26
2022-09-16T09:57:56.938Z,43.76
2022-09-16T10:00:24.552Z,44.29
2022-09-16T10:02:53.871Z,44.70
2022-09-16T10:05:25.962Z,45.50
2022-09-16T10:07:56.665Z,45.40
2022-09-16T10:10:25.854Z,44.27
2022-09-16T10:12:54.562Z,45.45
2022-09-16T10:15:24.447Z,45.60
2022-09-16T10:17:54.622Z,45.03
2022-09-16T10:20:28.199Z,45.59
2022-09-16T10:23:01.031Z,45.65
2022-09-16T10:25:30.683Z,45.42
2022-09-16T10:28:01.269Z,45.66
2022-09-16T10:30:32.842Z,46.34
2022-09-16T10:33:04.830Z,45.61
2022-09-16T10:35:34.491Z,45.53
2022-09-16T10:38:06.398Z,45.12
2022-09-16T10:40:34.942Z,44.66
2022-09-16T10:43:05.430Z,43.71
2022-09-16T10:45:36.655Z,44.37
2022-09-16T10:48:13.296Z,43.23
2022-09-16T10:50:40.930Z,42.65
2022-09-16T10:53:23.947Z,43.21
2022-09-16T10:55:59.013Z,42.79
2022-09-16T10:58:26.875Z,43.40
2022-09-16T11:01:20.138Z,43.74
2022-09-16T11:04:21.856Z,43.52
2022-09-16T11:07:02.591Z,43.46
2022-09-16T11:09:36.656Z,42.80
2022-09-16T11:12:34.814Z,43.59
2022-09-16T11:15:13.926Z,42.31
2022-09-16T11:17:58.620Z,43.10
2022-09-16T11:20:57.548Z,42.80
2022-09-16T11:23:41.248Z,43.29
2022-09-16T11:26:18.452Z,42.63
2022-09-16T11:29:09.441Z,44.22
2022-09-16T11:31:44.395Z,41.79
2022-09-16T11:34:24.742Z,43.68
2022-09-16T11:37:07.308Z,44.15
2022-09-16T11:40:01.312Z,45.96
2022-09-16T11:42:34.307Z,47.39
2022-09-16T11:45:12.777Z,49.51
2022-09-16T11:47:54.519Z,50.05
2022-09-16T11:50:42.200Z,49.56
2022-09-16T11:53:34.581Z,49.99
2022-09-16T11:56:08.780Z,50.92
2022-09-16T11:58:40.078Z,51.80
2022-09-16T12:03:54.425Z,53.77
2022-09-16T12:06:26.622Z,54.27
2022-09-16T12:09:01.661Z,54.49
2022-09-16T12:11:33.901Z,53.62
2022-09-16T12:14:09.379Z,51.59
2022-09-16T12:16:42.924Z,48.10
2022-09-16T12:19:17.862Z,44.25
2022-09-16T12:21:57.500Z,42.54
2022-09-16T12:24:33.479Z,42.88
2022-09-16T12:27:07.058Z,43.74
2022-09-16T12:29:41.795Z,44.56
2022-09-16T12:32:14.081Z,45.31
2022-09-16T12:34:45.606Z,45.50
2022-09-16T12:37:25.579Z,44.84
2022-09-16T12:39:54.596Z,45.44
2022-09-16T12:42:51.520Z,46.24
2022-09-16T12:46:06.540Z,46.69
2022-09-16T12:48:58.979Z,45.87
2022-09-16T12:51:54.518Z,45.42
2022-09-16T12:54:51.227Z,45.75
2022-09-16T12:57:42.584Z,46.20
2022-09-16T13:00:16.610Z,46.86
2022-09-16T13:02:48.763Z,47.24
2022-09-16T13:05:26.242Z,47.19
2022-09-16T13:07:59.452Z,47.98
2022-09-16T13:10:53.959Z,48.87
2022-09-16T13:13:30.979Z,48.69
2022-09-16T13:16:00.969Z,49.21
2022-09-16T13:18:41.148Z,51.07
2022-09-16T13:21:21.155Z,54.39
2022-09-16T13:23:54.439Z,57.32
2022-09-16T13:26:22.276Z,58.75
2022-09-16T13:28:51.267Z,61.32
2022-09-16T13:31:30.950Z,64.94
2022-09-16T13:34:15.102Z,65.41
2022-09-16T13:36:42.819Z,65.14
2022-09-16T13:39:13.617Z,65.33
2022-09-16T13:41:44.325Z,66.91
2022-09-16T13:44:31.511Z,63.33
2022-09-16T13:47:16.952Z,59.52
2022-09-16T13:49:49.061Z,58.65
2022-09-16T13:52:21.071Z,57.95
2022-09-16T13:55:09.547Z,58.99
2022-09-16T13:57:55.465Z,56.22
2022-09-16T14:00:32.325Z,55.69
2022-09-16T14:03:26.683Z,55.05
2022-09-16T14:06:14.521Z,55.17
2022-09-16T14:08:51.704Z,54.90
2022-09-16T14:11:29.768Z,54.29
2022-09-16T14:14:05.919Z,54.30
2022-09-16T14:16:40.221Z,54.71
2022-09-16T14:19:14.015Z,55.42
2022-09-16T14:21:41.637Z,55.29
2022-09-16T14:24:17.216Z,55.82
2022-09-16T14:26:54.767Z,55.88
2022-09-16T14:29:23.789Z,54.97
2022-09-16T14:31:55.482Z,54.86
2022-09-16T14:34:28.516Z,55.60
2022-09-16T14:36:56.314Z,55.42
2022-09-16T14:39:26.414Z,55.26
2022-09-16T14:41:58.338Z,55.69
2022-09-16T14:44:31.908Z,55.49
2022-09-16T14:47:09.146Z,56.38
2022-09-16T14:49:40.972Z,55.20
2022-09-16T14:52:20.611Z,54.26
2022-09-16T14:54:48.335Z,54.12
2022-09-16T14:57:20.556Z,54.01
2022-09-16T14:59:48.464Z,54.10
2022-09-16T15:02:22.805Z,53.91
2022-09-16T15:04:53.772Z,53.87
2022-09-16T15:07:25.026Z,54.76
2022-09-16T15:09:58.491Z,54.77
2022-09-16T15:12:29.209Z,52.83
2022-09-16T15:14:57.669Z,51.83
2022-09-16T15:17:29.158Z,51.13
2022-09-16T15:19:58.872Z,51.84
2022-09-16T15:22:27.895Z,51.80
2022-09-16T15:24:58.491Z,52.07
2022-09-16T15:27:28.199Z,52.34
2022-09-16T15:29:59.555Z,54.54
2022-09-16T15:32:31.765Z,55.88
2022-09-16T15:35:25.949Z,56.00
2022-09-16T15:37:54.852Z,56.65
2022-09-16T15:40:32.587Z,56.66
2022-09-16T15:43:06.877Z,57.57
2022-09-16T15:45:34.739Z,58.11
2022-09-16T15:48:07.393Z,58.19
2022-09-16T15:50:41.990Z,58.02
2022-09-16T15:53:13.958Z,58.74
2022-09-16T15:55:44.195Z,58.23
2022-09-16T15:58:17.635Z,58.12
2022-09-16T16:01:04.344Z,58.07
2022-09-16T16:03:47.253Z,58.35
2022-09-16T16:06:15.096Z,58.01
2022-09-16T16:08:48.355Z,58.24
2022-09-16T16:11:18.096Z,58.00
2022-09-16T16:13:46.681Z,58.52
2022-09-16T16:16:16.241Z,59.29
2022-09-16T16:18:47.366Z,59.86
2022-09-16T16:21:17.164Z,60.13
2022-09-16T16:23:45.349Z,59.04
2022-09-16T16:26:13.006Z,57.38
2022-09-16T16:28:40.586Z,56.56
2022-09-16T16:31:13.521Z,55.91
2022-09-16T16:33:47.506Z,55.86
2022-09-16T16:36:16.779Z,55.84
2022-09-16T16:38:46.184Z,55.91
2022-09-16T16:41:20.658Z,56.21
2022-09-16T16:43:48.454Z,56.44
2022-09-16T16:46:17.436Z,56.58
2022-09-16T16:48:47.105Z,56.83
2022-09-16T16:51:14.824Z,56.78
2022-09-16T16:53:42.527Z,57.41
2022-09-16T16:56:15.077Z,57.70
2022-09-16T16:58:42.992Z,57.84
2022-09-16T17:01:12.785Z,58.00
2022-09-16T17:03:40.975Z,58.22
2022-09-16T17:06:10.357Z,58.07
2022-09-16T17:08:38.359Z,59.04
2022-09-16T17:11:07.950Z,58.74
2022-09-16T17:13:35.615Z,58.68
2022-09-16T17:16:04.091Z,59.11
2022-09-16T17:18:31.832Z,58.63
2022-09-16T17:21:02.878Z,59.79
2022-09-16T17:23:32.182Z,60.41
2022-09-16T17:25:59.777Z,60.33
2022-09-16T17:28:27.444Z,60.62
2022-09-16T17:30:55.324Z,60.38
2022-09-16T17:33:23.379Z,60.62
2022-09-16T17:36:01.195Z,60.85
2022-09-16T17:38:29.062Z,60.85
2022-09-16T17:41:03.854Z,61.33
2022-09-16T17:43:32.869Z,61.44
2022-09-16T17:46:01.371Z,61.48
2022-09-16T17:48:29.378Z,61.90
2022-09-16T17:50:57.962Z,61.89
2022-09-16T17:53:26.675Z,62.78
2022-09-16T17:56:02.088Z,63.16
2022-09-16T17:58:31.400Z,62.94
2022-09-16T18:01:08.494Z,62.59
2022-09-16T18:03:36.822Z,63.16
2022-09-16T18:06:07.225Z,63.05
2022-09-16T18:08:34.839Z,64.10
2022-09-16T18:11:02.622Z,62.97
2022-09-16T18:13:31.957Z,62.35
2022-09-16T18:16:03.894Z,62.73
2022-09-16T18:18:32.727Z,62.46
2022-09-16T18:21:00.545Z,61.98
2022-09-16T18:23:30.568Z,61.22
2022-09-16T18:25:58.591Z,61.79
2022-09-16T18:28:26.236Z,61.96
2022-09-16T18:31:06.150Z,61.76
2022-09-16T18:33:36.628Z,62.51
2022-09-16T18:36:07.326Z,62.69
2022-09-16T18:38:35.967Z,63.01
2022-09-16T18:41:08.483Z,63.14
2022-09-16T18:43:36.517Z,63.10
2022-09-16T18:46:10.931Z,63.48
2022-09-16T18:48:39.139Z,63.88
2022-09-16T18:51:08.129Z,63.27
2022-09-16T18:53:35.766Z,62.83
2022-09-16T18:56:03.736Z,62.68
2022-09-16T18:58:31.833Z,62.13
2022-09-16T19:01:09.475Z,61.37
2022-09-16T19:03:38.471Z,61.27
2022-09-16T19:06:06.428Z,61.08
2022-09-16T19:08:35.636Z,60.42
2022-09-16T19:11:04.213Z,60.14
2022-09-16T19:13:33.702Z,59.76
2022-09-16T19:16:01.407Z,59.71
2022-09-16T19:18:29.440Z,59.59
2022-09-16T19:20:58.720Z,59.73
2022-09-16T19:23:26.369Z,59.89
2022-09-16T19:25:54.491Z,59.45
2022-09-16T19:28:22.050Z,58.97
2022-09-16T19:30:49.902Z,58.62
2022-09-16T19:33:17.919Z,58.52
2022-09-16T19:35:45.519Z,58.73
2022-09-16T19:38:14.549Z,57.87
2022-09-16T19:40:42.221Z,57.35
2022-09-16T19:43:09.813Z,57.90
2022-09-16T19:45:37.485Z,57.73
2022-09-16T19:48:05.973Z,58.12
2022-09-16T19:50:33.767Z,57.82
2022-09-16T19:53:01.422Z,57.19
2022-09-16T19:55:30.379Z,57.24
2022-09-16T19:57:58.039Z,57.69
2022-09-16T20:00:36.740Z,57.53
2022-09-16T20:03:13.656Z,57.94
2022-09-16T20:05:41.272Z,57.85
2022-09-16T20:08:08.912Z,57.12
2022-09-16T20:10:37.978Z,57.33
2022-09-16T20:13:05.620Z,57.34
2022-09-16T20:15:33.680Z,58.08
2022-09-16T20:18:01.259Z,57.50
2022-09-16T20:20:29.983Z,57.48
2022-09-16T20:22:57.579Z,57.64
2022-09-16T20:25:25.280Z,57.46
2022-09-16T20:27:54.400Z,57.65
2022-09-16T20:30:22.023Z,57.44
2022-09-16T20:32:49.994Z,57.64
2022-09-16T20:35:17.645Z,57.40
2022-09-16T20:37:45.313Z,57.76
2022-09-16T20:40:12.985Z,57.67
2022-09-16T20:42:40.710Z,57.97
2022-09-16T20:45:11.051Z,58.06
2022-09-16T20:47:38.638Z,57.94
2022-09-16T20:50:09.227Z,58.33
2022-09-16T20:52:36.819Z,58.23
2022-09-16T20:55:06.324Z,58.79
2022-09-16T20:57:34.012Z,58.86
2022-09-16T21:00:01.684Z,59.10
2022-09-16T21:02:30.650Z,58.77
2022-09-16T21:05:03.599Z,58.89
2022-09-16T21:07:31.269Z,59.37
2022-09-16T21:09:59.080Z,59.66
2022-09-16T21:12:26.720Z,59.58
2022-09-16T21:14:54.291Z,60.13
2022-09-16T21:17:22.621Z,60.23
2022-09-16T21:19:51.652Z,60.52
2022-09-16T21:22:20.210Z,61.01
2022-09-16T21:24:47.973Z,61.07
2022-09-16T21:27:15.598Z,60.75
2022-09-16T21:29:43.264Z,60.42
2022-09-16T21:32:10.922Z,60.21
2022-09-16T21:34:38.530Z,60.24
2022-09-16T21:37:07.460Z,60.47
2022-09-16T21:39:35.104Z,60.20
2022-09-16T21:42:02.700Z,60.88
2022-09-16T21:44:30.385Z,60.54
2022-09-16T21:46:57.931Z,60.98
2022-09-16T21:49:26.081Z,60.51
2022-09-16T21:51:55.136Z,60.55
2022-09-16T21:54:25.189Z,60.52
2022-09-16T21:56:53.111Z,60.47
2022-09-16T21:59:21.189Z,60.79
2022-09-16T22:01:50.189Z,60.55
2022-09-16T22:04:20.506Z,60.58
2022-09-16T22:06:49.669Z,60.30
2022-09-16T22:09:17.539Z,59.89
2022-09-16T22:11:46.998Z,60.05
2022-09-16T22:14:14.634Z,59.71
2022-09-16T22:16:42.439Z,59.81
2022-09-16T22:19:12.167Z,59.68
2022-09-16T22:21:42.217Z,59.55
2022-09-16T22:24:10.372Z,59.79
2022-09-16T22:26:38.493Z,59.26
2022-09-16T22:29:09.298Z,59.41
2022-09-16T22:31:38.407Z,59.58
2022-09-16T22:34:06.527Z,59.50
2022-09-16T22:36:36.441Z,59.63
2022-09-16T22:39:06.116Z,60.00
2022-09-16T22:41:34.679Z,59.70
2022-09-16T22:44:02.946Z,59.38
2022-09-16T22:46:34.488Z,59.47
2022-09-16T22:49:02.674Z,59.52
2022-09-16T22:51:30.412Z,59.62
2022-09-16T22:53:58.039Z,59.74
2022-09-16T22:56:29.279Z,59.47
2022-09-16T22:58:57.957Z,58.99
2022-09-16T23:01:27.668Z,59.31
2022-09-16T23:03:58.438Z,59.17
2022-09-16T23:06:27.971Z,59.08
2022-09-16T23:08:55.881Z,59.12
2022-09-16T23:11:25.452Z,59.08
2022-09-16T23:13:54.100Z,58.75
2022-09-16T23:16:23.690Z,58.82
2022-09-16T23:18:51.833Z,58.61
2022-09-16T23:21:22.103Z,58.92
2022-09-16T23:23:52.077Z,59.14
2022-09-16T23:26:21.780Z,59.00
2022-09-16T23:28:52.522Z,59.14
2022-09-16T23:31:22.820Z,59.25
2022-09-16T23:33:50.620Z,59.08
2022-09-16T23:36:20.410Z,58.83
2022-09-16T23:38:48.548Z,59.36
2022-09-16T23:41:19.725Z,58.87
2022-09-16T23:43:48.410Z,59.36
2022-09-16T23:46:20.335Z,58.84
2022-09-16T23:48:51.511Z,59.32
2022-09-16T23:51:27.234Z,59.10
2022-09-16T23:53:56.721Z,59.13
2022-09-16T23:56:24.308Z,59.67
2022-09-16T23:58:52.810Z,59.26
